sensor_id;sensor_type;location;lat;lon;timestamp;P1;durP1;ratioP1;P2;durP2;ratioP2
10863;SDS011;5485;37.558;126.950;2022-08-07T00:01:35;18.60;;;16.70;;
10863;SDS011;5485;37.558;126.950;2022-08-07T00:04:02;17.17;;;15.57;;
10863;SDS011;5485;37.558;126.950;2022-08-07T00:06:30;18.67;;;16.85;;
10863;SDS011;5485;37.558;126.950;2022-08-07T00:08:57;18.48;;;16.83;;
10863;SDS011;5485;37.558;126.950;2022-08-07T00:11:24;17.80;;;16.20;;
10863;SDS011;5485;37.558;126.950;2022-08-07T00:13:51;19.92;;;18.10;;
10863;SDS011;5485;37.558;126.950;2022-08-07T00:16:18;19.52;;;17.85;;
10863;SDS011;5485;37.558;126.950;2022-08-07T00:18:48;19.17;;;17.40;;
10863;SDS011;5485;37.558;126.950;2022-08-07T00:21:15;19.02;;;17.13;;
10863;SDS011;5485;37.558;126.950;2022-08-07T00:23:41;17.88;;;16.23;;
10863;SDS011;5485;37.558;126.950;2022-08-07T00:26:09;17.75;;;15.95;;
10863;SDS011;5485;37.558;126.950;2022-08-07T00:28:37;17.80;;;15.75;;
10863;SDS011;5485;37.558;126.950;2022-08-07T00:31:08;15.20;;;13.93;;
10863;SDS011;5485;37.558;126.950;2022-08-07T00:33:36;16.67;;;12.63;;
10863;SDS011;5485;37.558;126.950;2022-08-07T00:36:04;14.23;;;13.05;;
10863;SDS011;5485;37.558;126.950;2022-08-07T00:38:32;14.77;;;13.55;;
10863;SDS011;5485;37.558;126.950;2022-08-07T00:41:01;17.73;;;16.10;;
10863;SDS011;5485;37.558;126.950;2022-08-07T00:43:30;13.80;;;12.52;;
10863;SDS011;5485;37.558;126.950;2022-08-07T00:45:57;16.13;;;14.80;;
10863;SDS011;5485;37.558;126.950;2022-08-07T00:48:25;13.35;;;12.13;;
10863;SDS011;5485;37.558;126.950;2022-08-07T00:50:52;12.80;;;11.50;;
10863;SDS011;5485;37.558;126.950;2022-08-07T00:53:20;12.60;;;11.32;;
10863;SDS011;5485;37.558;126.950;2022-08-07T00:55:48;13.45;;;12.23;;
10863;SDS011;5485;37.558;126.950;2022-08-07T00:58:17;13.13;;;11.93;;
10863;SDS011;5485;37.558;126.950;2022-08-07T01:00:45;12.88;;;11.68;;
10863;SDS011;5485;37.558;126.950;2022-08-07T01:03:12;11.98;;;10.77;;
10863;SDS011;5485;37.558;126.950;2022-08-07T01:05:39;11.73;;;10.65;;
10863;SDS011;5485;37.558;126.950;2022-08-07T01:08:07;11.10;;;10.23;;
10863;SDS011;5485;37.558;126.950;2022-08-07T01:10:35;11.82;;;10.82;;
10863;SDS011;5485;37.558;126.950;2022-08-07T01:13:03;11.52;;;10.38;;
10863;SDS011;5485;37.558;126.950;2022-08-07T01:15:30;11.52;;;10.30;;
10863;SDS011;5485;37.558;126.950;2022-08-07T01:17:58;11.40;;;10.30;;
10863;SDS011;5485;37.558;126.950;2022-08-07T01:20:32;13.23;;;11.82;;
10863;SDS011;5485;37.558;126.950;2022-08-07T01:23:06;13.55;;;10.50;;
10863;SDS011;5485;37.558;126.950;2022-08-07T01:25:33;11.38;;;10.32;;
10863;SDS011;5485;37.558;126.950;2022-08-07T01:28:00;11.80;;;10.73;;
10863;SDS011;5485;37.558;126.950;2022-08-07T01:30:28;11.88;;;10.88;;
10863;SDS011;5485;37.558;126.950;2022-08-07T01:32:55;12.38;;;11.20;;
10863;SDS011;5485;37.558;126.950;2022-08-07T01:35:23;13.70;;;10.90;;
10863;SDS011;5485;37.558;126.950;2022-08-07T01:37:50;11.70;;;10.55;;
10863;SDS011;5485;37.558;126.950;2022-08-07T01:40:18;12.70;;;11.40;;
10863;SDS011;5485;37.558;126.950;2022-08-07T01:42:47;13.23;;;11.82;;
10863;SDS011;5485;37.558;126.950;2022-08-07T01:45:14;13.00;;;10.93;;
10863;SDS011;5485;37.558;126.950;2022-08-07T01:47:42;10.80;;;9.82;;
10863;SDS011;5485;37.558;126.950;2022-08-07T01:50:09;10.45;;;9.45;;
10863;SDS011;5485;37.558;126.950;2022-08-07T01:52:36;13.82;;;10.77;;
10863;SDS011;5485;37.558;126.950;2022-08-07T01:55:05;12.07;;;10.98;;
10863;SDS011;5485;37.558;126.950;2022-08-07T01:57:34;12.57;;;11.32;;
10863;SDS011;5485;37.558;126.950;2022-08-07T02:00:07;16.38;;;10.95;;
10863;SDS011;5485;37.558;126.950;2022-08-07T02:02:44;13.18;;;11.88;;
10863;SDS011;5485;37.558;126.950;2022-08-07T02:05:32;19.27;;;15.07;;
10863;SDS011;5485;37.558;126.950;2022-08-07T02:08:08;12.77;;;11.57;;
10863;SDS011;5485;37.558;126.950;2022-08-07T02:10:38;20.35;;;13.73;;
10863;SDS011;5485;37.558;126.950;2022-08-07T02:13:06;26.08;;;16.20;;
10863;SDS011;5485;37.558;126.950;2022-08-07T02:15:35;13.40;;;11.90;;
10863;SDS011;5485;37.558;126.950;2022-08-07T02:18:05;15.43;;;13.93;;
10863;SDS011;5485;37.558;126.950;2022-08-07T02:20:37;14.57;;;13.15;;
10863;SDS011;5485;37.558;126.950;2022-08-07T02:23:04;13.48;;;12.27;;
10863;SDS011;5485;37.558;126.950;2022-08-07T02:25:33;15.48;;;14.02;;
10863;SDS011;5485;37.558;126.950;2022-08-07T02:28:04;17.38;;;13.68;;
10863;SDS011;5485;37.558;126.950;2022-08-07T02:30:33;15.40;;;14.10;;
10863;SDS011;5485;37.558;126.950;2022-08-07T02:33:01;16.58;;;14.95;;
10863;SDS011;5485;37.558;126.950;2022-08-07T02:35:31;17.60;;;16.10;;
10863;SDS011;5485;37.558;126.950;2022-08-07T02:38:01;17.00;;;15.32;;
10863;SDS011;5485;37.558;126.950;2022-08-07T02:40:29;18.92;;;17.20;;
10863;SDS011;5485;37.558;126.950;2022-08-07T02:42:57;18.50;;;16.73;;
10863;SDS011;5485;37.558;126.950;2022-08-07T02:45:25;18.50;;;16.65;;
10863;SDS011;5485;37.558;126.950;2022-08-07T02:47:55;19.52;;;17.55;;
10863;SDS011;5485;37.558;126.950;2022-08-07T02:50:22;18.02;;;16.42;;
10863;SDS011;5485;37.558;126.950;2022-08-07T02:52:53;19.73;;;17.85;;
10863;SDS011;5485;37.558;126.950;2022-08-07T02:55:29;19.38;;;17.48;;
10863;SDS011;5485;37.558;126.950;2022-08-07T02:58:03;19.63;;;17.80;;
10863;SDS011;5485;37.558;126.950;2022-08-07T03:00:35;19.83;;;18.02;;
10863;SDS011;5485;37.558;126.950;2022-08-07T03:03:04;20.23;;;18.20;;
10863;SDS011;5485;37.558;126.950;2022-08-07T03:05:32;20.02;;;18.15;;
10863;SDS011;5485;37.558;126.950;2022-08-07T03:08:04;21.25;;;19.38;;
10863;SDS011;5485;37.558;126.950;2022-08-07T03:10:32;22.70;;;20.55;;
10863;SDS011;5485;37.558;126.950;2022-08-07T03:13:00;18.08;;;16.63;;
10863;SDS011;5485;37.558;126.950;2022-08-07T03:15:27;20.88;;;18.88;;
10863;SDS011;5485;37.558;126.950;2022-08-07T03:17:55;19.73;;;18.05;;
10863;SDS011;5485;37.558;126.950;2022-08-07T03:20:25;20.23;;;18.35;;
10863;SDS011;5485;37.558;126.950;2022-08-07T03:22:52;18.73;;;16.92;;
10863;SDS011;5485;37.558;126.950;2022-08-07T03:25:22;18.73;;;16.83;;
10863;SDS011;5485;37.558;126.950;2022-08-07T03:27:50;18.10;;;16.40;;
10863;SDS011;5485;37.558;126.950;2022-08-07T03:30:19;18.88;;;17.08;;
10863;SDS011;5485;37.558;126.950;2022-08-07T03:32:48;17.60;;;16.10;;
10863;SDS011;5485;37.558;126.950;2022-08-07T03:35:20;18.77;;;16.73;;
10863;SDS011;5485;37.558;126.950;2022-08-07T03:37:52;18.35;;;16.65;;
10863;SDS011;5485;37.558;126.950;2022-08-07T03:40:22;18.65;;;16.90;;
10863;SDS011;5485;37.558;126.950;2022-08-07T03:42:50;23.95;;;18.00;;
10863;SDS011;5485;37.558;126.950;2022-08-07T03:45:18;20.48;;;18.60;;
10863;SDS011;5485;37.558;126.950;2022-08-07T03:47:48;21.80;;;19.80;;
10863;SDS011;5485;37.558;126.950;2022-08-07T03:50:16;19.65;;;18.02;;
10863;SDS011;5485;37.558;126.950;2022-08-07T03:52:46;21.88;;;19.98;;
10863;SDS011;5485;37.558;126.950;2022-08-07T03:55:14;21.38;;;19.17;;
10863;SDS011;5485;37.558;126.950;2022-08-07T03:57:42;20.98;;;19.02;;
10863;SDS011;5485;37.558;126.950;2022-08-07T04:00:10;21.25;;;19.23;;
10863;SDS011;5485;37.558;126.950;2022-08-07T04:02:38;18.27;;;16.50;;
10863;SDS011;5485;37.558;126.950;2022-08-07T04:05:07;19.83;;;17.80;;
10863;SDS011;5485;37.558;126.950;2022-08-07T04:07:34;18.88;;;17.13;;
10863;SDS011;5485;37.558;126.950;2022-08-07T04:10:02;19.77;;;17.88;;
10863;SDS011;5485;37.558;126.950;2022-08-07T04:12:30;18.15;;;16.40;;
10863;SDS011;5485;37.558;126.950;2022-08-07T04:14:57;18.55;;;16.60;;
10863;SDS011;5485;37.558;126.950;2022-08-07T04:17:24;18.80;;;16.90;;
10863;SDS011;5485;37.558;126.950;2022-08-07T04:19:51;18.77;;;16.95;;
10863;SDS011;5485;37.558;126.950;2022-08-07T04:22:31;16.77;;;15.07;;
10863;SDS011;5485;37.558;126.950;2022-08-07T04:25:04;15.68;;;14.25;;
10863;SDS011;5485;37.558;126.950;2022-08-07T04:27:32;13.88;;;12.60;;
10863;SDS011;5485;37.558;126.950;2022-08-07T04:30:00;15.65;;;14.23;;
10863;SDS011;5485;37.558;126.950;2022-08-07T04:32:27;14.90;;;13.50;;
10863;SDS011;5485;37.558;126.950;2022-08-07T04:34:55;15.30;;;13.70;;
10863;SDS011;5485;37.558;126.950;2022-08-07T04:37:22;15.70;;;12.90;;
10863;SDS011;5485;37.558;126.950;2022-08-07T04:39:49;17.00;;;15.00;;
10863;SDS011;5485;37.558;126.950;2022-08-07T04:42:16;13.88;;;12.48;;
10863;SDS011;5485;37.558;126.950;2022-08-07T04:44:43;14.43;;;12.95;;
10863;SDS011;5485;37.558;126.950;2022-08-07T04:47:10;13.23;;;11.95;;
10863;SDS011;5485;37.558;126.950;2022-08-07T04:52:38;13.13;;;11.85;;
10863;SDS011;5485;37.558;126.950;2022-08-07T04:55:44;12.48;;;10.48;;
10863;SDS011;5485;37.558;126.950;2022-08-07T05:01:44;15.98;;;12.20;;
10863;SDS011;5485;37.558;126.950;2022-08-07T05:04:15;11.30;;;10.40;;
10863;SDS011;5485;37.558;126.950;2022-08-07T05:12:05;11.43;;;10.30;;
10863;SDS011;5485;37.558;126.950;2022-08-07T05:14:42;11.85;;;10.65;;
10863;SDS011;5485;37.558;126.950;2022-08-07T05:17:11;11.18;;;10.10;;
10863;SDS011;5485;37.558;126.950;2022-08-07T05:19:42;10.77;;;9.80;;
10863;SDS011;5485;37.558;126.950;2022-08-07T05:22:15;11.30;;;10.18;;
10863;SDS011;5485;37.558;126.950;2022-08-07T05:24:45;12.15;;;10.95;;
10863;SDS011;5485;37.558;126.950;2022-08-07T05:27:15;12.00;;;10.82;;
10863;SDS011;5485;37.558;126.950;2022-08-07T05:29:44;12.05;;;10.85;;
10863;SDS011;5485;37.558;126.950;2022-08-07T05:32:12;12.75;;;10.98;;
10863;SDS011;5485;37.558;126.950;2022-08-07T05:34:43;13.00;;;11.43;;
10863;SDS011;5485;37.558;126.950;2022-08-07T05:37:13;12.63;;;11.40;;
10863;SDS011;5485;37.558;126.950;2022-08-07T05:39:41;13.18;;;11.85;;
10863;SDS011;5485;37.558;126.950;2022-08-07T05:42:09;12.52;;;11.45;;
10863;SDS011;5485;37.558;126.950;2022-08-07T05:44:37;12.57;;;11.48;;
10863;SDS011;5485;37.558;126.950;2022-08-07T05:47:06;12.98;;;11.80;;
10863;SDS011;5485;37.558;126.950;2022-08-07T05:49:33;13.55;;;11.98;;
10863;SDS011;5485;37.558;126.950;2022-08-07T05:52:01;14.40;;;12.63;;
10863;SDS011;5485;37.558;126.950;2022-08-07T05:54:29;13.80;;;12.50;;
10863;SDS011;5485;37.558;126.950;2022-08-07T05:56:56;14.45;;;12.60;;
10863;SDS011;5485;37.558;126.950;2022-08-07T05:59:23;14.00;;;12.65;;
10863;SDS011;5485;37.558;126.950;2022-08-07T06:01:51;15.30;;;12.55;;
10863;SDS011;5485;37.558;126.950;2022-08-07T06:04:21;13.82;;;12.43;;
10863;SDS011;5485;37.558;126.950;2022-08-07T06:06:49;13.45;;;12.10;;
10863;SDS011;5485;37.558;126.950;2022-08-07T06:09:16;13.10;;;11.57;;
10863;SDS011;5485;37.558;126.950;2022-08-07T06:11:43;12.65;;;10.43;;
10863;SDS011;5485;37.558;126.950;2022-08-07T06:14:11;12.20;;;10.98;;
10863;SDS011;5485;37.558;126.950;2022-08-07T06:16:38;13.10;;;10.90;;
10863;SDS011;5485;37.558;126.950;2022-08-07T06:19:08;11.30;;;9.98;;
10863;SDS011;5485;37.558;126.950;2022-08-07T06:21:37;12.95;;;9.68;;
10863;SDS011;5485;37.558;126.950;2022-08-07T06:24:04;11.30;;;10.15;;
10863;SDS011;5485;37.558;126.950;2022-08-07T06:26:31;9.25;;;8.45;;
10863;SDS011;5485;37.558;126.950;2022-08-07T06:28:58;9.27;;;7.18;;
10863;SDS011;5485;37.558;126.950;2022-08-07T06:31:26;7.95;;;7.05;;
10863;SDS011;5485;37.558;126.950;2022-08-07T06:33:53;7.15;;;6.45;;
10863;SDS011;5485;37.558;126.950;2022-08-07T06:36:20;9.15;;;5.85;;
10863;SDS011;5485;37.558;126.950;2022-08-07T06:38:47;8.50;;;5.90;;
10863;SDS011;5485;37.558;126.950;2022-08-07T06:41:17;8.25;;;5.65;;
10863;SDS011;5485;37.558;126.950;2022-08-07T06:43:51;5.65;;;5.10;;
10863;SDS011;5485;37.558;126.950;2022-08-07T06:46:19;7.18;;;5.72;;
10863;SDS011;5485;37.558;126.950;2022-08-07T06:48:47;7.22;;;5.80;;
10863;SDS011;5485;37.558;126.950;2022-08-07T06:51:16;10.00;;;6.47;;
10863;SDS011;5485;37.558;126.950;2022-08-07T06:53:45;8.07;;;6.07;;
10863;SDS011;5485;37.558;126.950;2022-08-07T06:56:14;7.88;;;5.78;;
10863;SDS011;5485;37.558;126.950;2022-08-07T06:59:03;9.48;;;6.65;;
10863;SDS011;5485;37.558;126.950;2022-08-07T07:01:32;7.55;;;6.85;;
10863;SDS011;5485;37.558;126.950;2022-08-07T07:04:00;7.35;;;6.45;;
10863;SDS011;5485;37.558;126.950;2022-08-07T07:06:30;7.53;;;6.78;;
10863;SDS011;5485;37.558;126.950;2022-08-07T07:09:16;7.78;;;6.32;;
10863;SDS011;5485;37.558;126.950;2022-08-07T07:17:43;7.72;;;6.32;;
10863;SDS011;5485;37.558;126.950;2022-08-07T07:20:41;6.75;;;5.97;;
10863;SDS011;5485;37.558;126.950;2022-08-07T07:23:21;8.60;;;6.53;;
10863;SDS011;5485;37.558;126.950;2022-08-07T07:25:50;7.25;;;6.45;;
10863;SDS011;5485;37.558;126.950;2022-08-07T07:30:52;11.18;;;7.43;;
10863;SDS011;5485;37.558;126.950;2022-08-07T07:33:25;8.98;;;6.70;;
10863;SDS011;5485;37.558;126.950;2022-08-07T07:35:53;7.60;;;6.60;;
10863;SDS011;5485;37.558;126.950;2022-08-07T07:38:22;14.63;;;7.03;;
10863;SDS011;5485;37.558;126.950;2022-08-07T07:40:50;8.32;;;6.72;;
10863;SDS011;5485;37.558;126.950;2022-08-07T07:43:25;7.82;;;6.47;;
10863;SDS011;5485;37.558;126.950;2022-08-07T07:45:54;6.97;;;6.32;;
10863;SDS011;5485;37.558;126.950;2022-08-07T07:48:22;9.15;;;6.80;;
10863;SDS011;5485;37.558;126.950;2022-08-07T07:50:51;7.63;;;6.75;;
10863;SDS011;5485;37.558;126.950;2022-08-07T07:53:21;10.20;;;6.78;;
10863;SDS011;5485;37.558;126.950;2022-08-07T07:55:51;9.50;;;6.43;;
10863;SDS011;5485;37.558;126.950;2022-08-07T07:58:22;7.75;;;6.40;;
10863;SDS011;5485;37.558;126.950;2022-08-07T08:00:58;8.30;;;6.15;;
10863;SDS011;5485;37.558;126.950;2022-08-07T08:03:27;6.90;;;6.20;;
10863;SDS011;5485;37.558;126.950;2022-08-07T08:05:55;8.50;;;6.40;;
10863;SDS011;5485;37.558;126.950;2022-08-07T08:08:23;10.93;;;7.00;;
10863;SDS011;5485;37.558;126.950;2022-08-07T08:10:53;8.65;;;6.68;;
10863;SDS011;5485;37.558;126.950;2022-08-07T08:13:22;11.90;;;6.15;;
10863;SDS011;5485;37.558;126.950;2022-08-07T08:15:51;9.43;;;6.32;;
10863;SDS011;5485;37.558;126.950;2022-08-07T08:18:18;6.60;;;6.05;;
10863;SDS011;5485;37.558;126.950;2022-08-07T08:20:47;8.52;;;6.53;;
10863;SDS011;5485;37.558;126.950;2022-08-07T08:23:16;7.13;;;5.82;;
10863;SDS011;5485;37.558;126.950;2022-08-07T08:26:03;8.88;;;6.10;;
10863;SDS011;5485;37.558;126.950;2022-08-07T08:28:50;10.70;;;6.32;;
10863;SDS011;5485;37.558;126.950;2022-08-07T08:31:22;7.47;;;6.13;;
10863;SDS011;5485;37.558;126.950;2022-08-07T08:33:55;10.85;;;6.18;;
10863;SDS011;5485;37.558;126.950;2022-08-07T08:36:23;12.48;;;6.68;;
10863;SDS011;5485;37.558;126.950;2022-08-07T08:38:55;9.32;;;6.03;;
10863;SDS011;5485;37.558;126.950;2022-08-07T08:47:23;8.07;;;5.78;;
10863;SDS011;5485;37.558;126.950;2022-08-07T08:50:07;7.15;;;6.10;;
10863;SDS011;5485;37.558;126.950;2022-08-07T08:52:46;8.10;;;6.35;;
10863;SDS011;5485;37.558;126.950;2022-08-07T08:55:40;11.10;;;9.55;;
10863;SDS011;5485;37.558;126.950;2022-08-07T09:06:37;10.52;;;5.70;;
10863;SDS011;5485;37.558;126.950;2022-08-07T09:12:10;7.22;;;4.78;;
10863;SDS011;5485;37.558;126.950;2022-08-07T09:14:48;5.40;;;4.90;;
10863;SDS011;5485;37.558;126.950;2022-08-07T09:25:49;7.50;;;5.85;;
10863;SDS011;5485;37.558;126.950;2022-08-07T09:28:30;6.30;;;5.65;;
10863;SDS011;5485;37.558;126.950;2022-08-07T09:33:54;8.20;;;5.80;;
10863;SDS011;5485;37.558;126.950;2022-08-07T09:36:38;8.77;;;5.47;;
10863;SDS011;5485;37.558;126.950;2022-08-07T09:44:46;6.78;;;5.82;;
10863;SDS011;5485;37.558;126.950;2022-08-07T09:50:47;8.40;;;6.10;;
10863;SDS011;5485;37.558;126.950;2022-08-07T09:53:05;9.38;;;6.32;;
10863;SDS011;5485;37.558;126.950;2022-08-07T10:01:44;8.00;;;6.28;;
10863;SDS011;5485;37.558;126.950;2022-08-07T10:04:26;8.15;;;6.07;;
10863;SDS011;5485;37.558;126.950;2022-08-07T10:29:22;6.53;;;5.88;;
10863;SDS011;5485;37.558;126.950;2022-08-07T10:47:11;9.05;;;6.57;;
10863;SDS011;5485;37.558;126.950;2022-08-07T10:49:53;11.07;;;5.93;;
10863;SDS011;5485;37.558;126.950;2022-08-07T10:52:40;8.45;;;7.25;;
10863;SDS011;5485;37.558;126.950;2022-08-07T10:55:22;6.43;;;5.80;;
10863;SDS011;5485;37.558;126.950;2022-08-07T11:01:02;6.72;;;5.97;;
10863;SDS011;5485;37.558;126.950;2022-08-07T11:03:55;9.05;;;6.63;;
10863;SDS011;5485;37.558;126.950;2022-08-07T11:06:31;7.25;;;6.43;;
10863;SDS011;5485;37.558;126.950;2022-08-07T11:09:30;7.40;;;5.95;;
10863;SDS011;5485;37.558;126.950;2022-08-07T11:12:12;7.40;;;6.18;;
10863;SDS011;5485;37.558;126.950;2022-08-07T11:14:51;7.70;;;5.82;;
10863;SDS011;5485;37.558;126.950;2022-08-07T11:20:22;7.07;;;6.03;;
10863;SDS011;5485;37.558;126.950;2022-08-07T11:28:44;10.55;;;6.88;;
10863;SDS011;5485;37.558;126.950;2022-08-07T11:31:22;7.88;;;6.10;;
10863;SDS011;5485;37.558;126.950;2022-08-07T11:45:49;8.55;;;6.28;;
10863;SDS011;5485;37.558;126.950;2022-08-07T11:48:25;8.52;;;7.50;;
10863;SDS011;5485;37.558;126.950;2022-08-07T12:08:32;8.10;;;6.78;;
10863;SDS011;5485;37.558;126.950;2022-08-07T12:17:22;10.23;;;7.25;;
10863;SDS011;5485;37.558;126.950;2022-08-07T12:19:54;8.73;;;6.50;;
10863;SDS011;5485;37.558;126.950;2022-08-07T12:22:46;8.68;;;6.80;;
10863;SDS011;5485;37.558;126.950;2022-08-07T12:31:16;10.05;;;6.57;;
10863;SDS011;5485;37.558;126.950;2022-08-07T12:33:52;9.52;;;7.25;;
10863;SDS011;5485;37.558;126.950;2022-08-07T12:36:20;10.75;;;7.07;;
10863;SDS011;5485;37.558;126.950;2022-08-07T12:38:49;10.60;;;7.65;;
10863;SDS011;5485;37.558;126.950;2022-08-07T12:41:18;9.75;;;7.70;;
10863;SDS011;5485;37.558;126.950;2022-08-07T12:43:46;9.70;;;7.82;;
10863;SDS011;5485;37.558;126.950;2022-08-07T12:52:05;10.15;;;7.38;;
10863;SDS011;5485;37.558;126.950;2022-08-07T12:57:26;12.50;;;8.32;;
10863;SDS011;5485;37.558;126.950;2022-08-07T12:59:59;9.80;;;7.95;;
10863;SDS011;5485;37.558;126.950;2022-08-07T13:11:28;11.18;;;8.35;;
10863;SDS011;5485;37.558;126.950;2022-08-07T13:14:06;12.18;;;8.35;;
10863;SDS011;5485;37.558;126.950;2022-08-07T13:17:16;12.85;;;8.77;;
10863;SDS011;5485;37.558;126.950;2022-08-07T13:19:33;12.40;;;8.95;;
10863;SDS011;5485;37.558;126.950;2022-08-07T13:22:18;10.88;;;8.77;;
10863;SDS011;5485;37.558;126.950;2022-08-07T13:27:40;10.65;;;8.35;;
10863;SDS011;5485;37.558;126.950;2022-08-07T13:30:13;12.40;;;8.90;;
10863;SDS011;5485;37.558;126.950;2022-08-07T13:32:47;9.45;;;8.55;;
10863;SDS011;5485;37.558;126.950;2022-08-07T13:35:53;11.27;;;8.65;;
10863;SDS011;5485;37.558;126.950;2022-08-07T13:44:04;14.23;;;9.48;;
10863;SDS011;5485;37.558;126.950;2022-08-07T13:46:38;12.60;;;9.27;;
10863;SDS011;5485;37.558;126.950;2022-08-07T13:49:09;11.88;;;8.95;;
10863;SDS011;5485;37.558;126.950;2022-08-07T13:51:38;12.07;;;8.45;;
10863;SDS011;5485;37.558;126.950;2022-08-07T13:54:08;12.88;;;9.38;;
10863;SDS011;5485;37.558;126.950;2022-08-07T13:56:38;12.23;;;9.15;;
10863;SDS011;5485;37.558;126.950;2022-08-07T14:04:35;14.48;;;10.35;;
10863;SDS011;5485;37.558;126.950;2022-08-07T14:07:15;14.52;;;9.70;;
10863;SDS011;5485;37.558;126.950;2022-08-07T14:09:45;11.00;;;9.48;;
10863;SDS011;5485;37.558;126.950;2022-08-07T14:12:59;13.95;;;9.98;;
10863;SDS011;5485;37.558;126.950;2022-08-07T14:15:17;13.75;;;10.38;;
10863;SDS011;5485;37.558;126.950;2022-08-07T14:18:06;15.27;;;9.88;;
10863;SDS011;5485;37.558;126.950;2022-08-07T14:20:57;14.68;;;9.93;;
10863;SDS011;5485;37.558;126.950;2022-08-07T14:23:55;12.63;;;10.02;;
10863;SDS011;5485;37.558;126.950;2022-08-07T14:26:42;12.15;;;9.73;;
10863;SDS011;5485;37.558;126.950;2022-08-07T14:29:17;13.27;;;10.57;;
10863;SDS011;5485;37.558;126.950;2022-08-07T14:31:46;12.90;;;8.73;;
10863;SDS011;5485;37.558;126.950;2022-08-07T14:34:15;12.57;;;8.90;;
10863;SDS011;5485;37.558;126.950;2022-08-07T14:36:45;11.65;;;9.27;;
10863;SDS011;5485;37.558;126.950;2022-08-07T14:39:13;14.90;;;9.90;;
10863;SDS011;5485;37.558;126.950;2022-08-07T14:41:47;11.80;;;9.60;;
10863;SDS011;5485;37.558;126.950;2022-08-07T14:44:15;13.68;;;9.80;;
10863;SDS011;5485;37.558;126.950;2022-08-07T14:46:43;13.23;;;9.88;;
10863;SDS011;5485;37.558;126.950;2022-08-07T14:49:11;15.70;;;10.23;;
10863;SDS011;5485;37.558;126.950;2022-08-07T14:51:41;16.58;;;9.95;;
10863;SDS011;5485;37.558;126.950;2022-08-07T14:54:10;13.15;;;9.20;;
10863;SDS011;5485;37.558;126.950;2022-08-07T14:56:47;17.63;;;10.63;;
10863;SDS011;5485;37.558;126.950;2022-08-07T14:59:19;12.13;;;9.57;;
10863;SDS011;5485;37.558;126.950;2022-08-07T15:02:07;16.67;;;10.57;;
10863;SDS011;5485;37.558;126.950;2022-08-07T15:04:44;12.52;;;9.55;;
10863;SDS011;5485;37.558;126.950;2022-08-07T15:07:19;16.35;;;10.65;;
10863;SDS011;5485;37.558;126.950;2022-08-07T15:09:48;14.05;;;10.13;;
10863;SDS011;5485;37.558;126.950;2022-08-07T15:12:24;14.38;;;10.48;;
10863;SDS011;5485;37.558;126.950;2022-08-07T15:15:02;13.88;;;9.30;;
10863;SDS011;5485;37.558;126.950;2022-08-07T15:17:42;16.92;;;10.07;;
10863;SDS011;5485;37.558;126.950;2022-08-07T15:20:17;12.02;;;9.85;;
10863;SDS011;5485;37.558;126.950;2022-08-07T15:22:53;14.02;;;9.75;;
10863;SDS011;5485;37.558;126.950;2022-08-07T15:25:26;15.80;;;10.60;;
10863;SDS011;5485;37.558;126.950;2022-08-07T15:28:00;14.57;;;10.23;;
10863;SDS011;5485;37.558;126.950;2022-08-07T15:30:32;16.23;;;9.77;;
10863;SDS011;5485;37.558;126.950;2022-08-07T15:33:06;13.18;;;10.55;;
10863;SDS011;5485;37.558;126.950;2022-08-07T15:35:33;14.50;;;10.05;;
10863;SDS011;5485;37.558;126.950;2022-08-07T15:38:02;12.73;;;9.77;;
10863;SDS011;5485;37.558;126.950;2022-08-07T15:40:30;20.05;;;10.48;;
10863;SDS011;5485;37.558;126.950;2022-08-07T15:43:03;12.32;;;9.90;;
10863;SDS011;5485;37.558;126.950;2022-08-07T15:45:41;12.02;;;9.75;;
10863;SDS011;5485;37.558;126.950;2022-08-07T15:50:42;12.63;;;9.77;;
10863;SDS011;5485;37.558;126.950;2022-08-07T15:53:15;14.60;;;9.88;;
10863;SDS011;5485;37.558;126.950;2022-08-07T15:55:53;16.45;;;9.80;;
10863;SDS011;5485;37.558;126.950;2022-08-07T15:59:09;13.10;;;9.63;;
10863;SDS011;5485;37.558;126.950;2022-08-07T16:01:21;10.40;;;9.32;;
10863;SDS011;5485;37.558;126.950;2022-08-07T16:03:52;14.13;;;10.40;;
10863;SDS011;5485;37.558;126.950;2022-08-07T16:17:18;11.35;;;9.68;;
10863;SDS011;5485;37.558;126.950;2022-08-07T16:28:53;19.95;;;12.43;;
10863;SDS011;5485;37.558;126.950;2022-08-07T16:39:57;16.58;;;12.05;;
10863;SDS011;5485;37.558;126.950;2022-08-07T16:43:03;16.40;;;11.48;;
10863;SDS011;5485;37.558;126.950;2022-08-07T16:46:05;16.10;;;12.32;;
10863;SDS011;5485;37.558;126.950;2022-08-07T16:51:47;15.18;;;13.63;;
10863;SDS011;5485;37.558;126.950;2022-08-07T16:54:54;13.80;;;12.40;;
10863;SDS011;5485;37.558;126.950;2022-08-07T17:00:19;16.27;;;14.52;;
10863;SDS011;5485;37.558;126.950;2022-08-07T17:05:33;15.73;;;14.13;;
10863;SDS011;5485;37.558;126.950;2022-08-07T17:08:50;19.05;;;15.00;;
10863;SDS011;5485;37.558;126.950;2022-08-07T17:20:15;19.00;;;17.10;;
10863;SDS011;5485;37.558;126.950;2022-08-07T17:23:42;20.23;;;18.08;;
10863;SDS011;5485;37.558;126.950;2022-08-07T17:31:50;22.55;;;19.30;;
10863;SDS011;5485;37.558;126.950;2022-08-07T17:34:41;21.10;;;18.50;;
10863;SDS011;5485;37.558;126.950;2022-08-07T17:37:19;21.90;;;19.70;;
10863;SDS011;5485;37.558;126.950;2022-08-07T17:40:05;22.52;;;19.92;;
10863;SDS011;5485;37.558;126.950;2022-08-07T17:42:58;21.05;;;19.23;;
10863;SDS011;5485;37.558;126.950;2022-08-07T17:45:40;23.23;;;20.80;;
10863;SDS011;5485;37.558;126.950;2022-08-07T17:48:50;22.40;;;20.05;;
10863;SDS011;5485;37.558;126.950;2022-08-07T17:51:34;23.02;;;20.58;;
10863;SDS011;5485;37.558;126.950;2022-08-07T17:54:11;22.67;;;20.17;;
10863;SDS011;5485;37.558;126.950;2022-08-07T17:57:05;22.73;;;20.42;;
10863;SDS011;5485;37.558;126.950;2022-08-07T17:59:45;23.85;;;21.55;;
10863;SDS011;5485;37.558;126.950;2022-08-07T18:04:59;22.45;;;20.13;;
10863;SDS011;5485;37.558;126.950;2022-08-07T18:15:50;21.67;;;19.60;;
10863;SDS011;5485;37.558;126.950;2022-08-07T18:18:48;24.48;;;20.80;;
10863;SDS011;5485;37.558;126.950;2022-08-07T18:24:13;22.48;;;20.25;;
10863;SDS011;5485;37.558;126.950;2022-08-07T18:27:01;23.33;;;21.10;;
10863;SDS011;5485;37.558;126.950;2022-08-07T18:35:21;22.40;;;20.10;;
10863;SDS011;5485;37.558;126.950;2022-08-07T18:49:37;20.23;;;18.23;;
10863;SDS011;5485;37.558;126.950;2022-08-07T19:01:12;19.65;;;17.75;;
10863;SDS011;5485;37.558;126.950;2022-08-07T19:23:38;18.50;;;14.38;;
10863;SDS011;5485;37.558;126.950;2022-08-07T19:26:16;16.75;;;15.02;;
10863;SDS011;5485;37.558;126.950;2022-08-07T19:28:54;16.77;;;14.80;;
10863;SDS011;5485;37.558;126.950;2022-08-07T19:31:28;15.50;;;13.73;;
10863;SDS011;5485;37.558;126.950;2022-08-07T19:34:19;17.90;;;14.35;;
10863;SDS011;5485;37.558;126.950;2022-08-07T19:36:53;15.15;;;12.70;;
10863;SDS011;5485;37.558;126.950;2022-08-07T19:39:24;14.25;;;12.90;;
10863;SDS011;5485;37.558;126.950;2022-08-07T19:41:55;17.17;;;13.05;;
10863;SDS011;5485;37.558;126.950;2022-08-07T19:44:26;13.93;;;12.43;;
10863;SDS011;5485;37.558;126.950;2022-08-07T19:47:08;13.05;;;11.80;;
10863;SDS011;5485;37.558;126.950;2022-08-07T19:49:43;13.85;;;11.45;;
10863;SDS011;5485;37.558;126.950;2022-08-07T19:52:13;16.25;;;11.93;;